sensor_id;sensor_type;location;lat;lon;timestamp;P1;durP1;ratioP1;P2;durP2;ratioP2
16173;SDS011;14031;50.158;8.626;2023-11-21T00:02:06;3.27;;;2.67;;
16173;SDS011;14031;50.158;8.626;2023-11-21T00:04:34;2.50;;;2.30;;
16173;SDS011;14031;50.158;8.626;2023-11-21T00:07:01;3.70;;;2.43;;
16173;SDS011;14031;50.158;8.626;2023-11-21T00:09:28;4.03;;;2.40;;
16173;SDS011;14031;50.158;8.626;2023-11-21T00:11:54;2.40;;;2.10;;
16173;SDS011;14031;50.158;8.626;2023-11-21T00:14:21;2.47;;;2.30;;
16173;SDS011;14031;50.158;8.626;2023-11-21T00:16:48;5.73;;;2.63;;
16173;SDS011;14031;50.158;8.626;2023-11-21T00:19:15;3.70;;;2.73;;
16173;SDS011;14031;50.158;8.626;2023-11-21T00:21:43;4.80;;;2.47;;
16173;SDS011;14031;50.158;8.626;2023-11-21T00:24:10;3.00;;;2.33;;
16173;SDS011;14031;50.158;8.626;2023-11-21T00:26:38;6.77;;;2.50;;
16173;SDS011;14031;50.158;8.626;2023-11-21T00:29:05;2.60;;;2.40;;
16173;SDS011;14031;50.158;8.626;2023-11-21T00:31:33;2.43;;;2.23;;
16173;SDS011;14031;50.158;8.626;2023-11-21T00:34:01;5.17;;;2.80;;
16173;SDS011;14031;50.158;8.626;2023-11-21T00:36:28;2.87;;;2.40;;
16173;SDS011;14031;50.158;8.626;2023-11-21T00:38:56;5.23;;;2.57;;
16173;SDS011;14031;50.158;8.626;2023-11-21T00:41:24;3.23;;;2.40;;
16173;SDS011;14031;50.158;8.626;2023-11-21T00:43:52;3.83;;;2.53;;
16173;SDS011;14031;50.158;8.626;2023-11-21T00:46:20;4.40;;;2.40;;
16173;SDS011;14031;50.158;8.626;2023-11-21T00:48:47;6.70;;;2.40;;
16173;SDS011;14031;50.158;8.626;2023-11-21T00:51:13;3.43;;;2.70;;
16173;SDS011;14031;50.158;8.626;2023-11-21T00:53:40;3.30;;;2.83;;
16173;SDS011;14031;50.158;8.626;2023-11-21T00:56:08;3.00;;;2.77;;
16173;SDS011;14031;50.158;8.626;2023-11-21T00:58:35;4.63;;;2.77;;
16173;SDS011;14031;50.158;8.626;2023-11-21T01:01:02;4.30;;;3.13;;
16173;SDS011;14031;50.158;8.626;2023-11-21T01:03:29;3.50;;;3.20;;
16173;SDS011;14031;50.158;8.626;2023-11-21T01:05:55;4.00;;;3.23;;
16173;SDS011;14031;50.158;8.626;2023-11-21T01:08:22;3.00;;;2.73;;
16173;SDS011;14031;50.158;8.626;2023-11-21T01:10:49;3.43;;;2.93;;
16173;SDS011;14031;50.158;8.626;2023-11-21T01:13:17;5.43;;;3.20;;
16173;SDS011;14031;50.158;8.626;2023-11-21T01:15:44;4.90;;;3.23;;
16173;SDS011;14031;50.158;8.626;2023-11-21T01:18:11;4.67;;;3.60;;
16173;SDS011;14031;50.158;8.626;2023-11-21T01:20:38;4.63;;;3.60;;
16173;SDS011;14031;50.158;8.626;2023-11-21T01:23:05;3.60;;;3.30;;
16173;SDS011;14031;50.158;8.626;2023-11-21T01:25:31;5.70;;;3.60;;
16173;SDS011;14031;50.158;8.626;2023-11-21T01:27:58;3.80;;;3.43;;
16173;SDS011;14031;50.158;8.626;2023-11-21T01:30:26;4.37;;;3.97;;
16173;SDS011;14031;50.158;8.626;2023-11-21T01:32:53;4.13;;;3.50;;
16173;SDS011;14031;50.158;8.626;2023-11-21T01:35:20;5.37;;;3.37;;
16173;SDS011;14031;50.158;8.626;2023-11-21T01:37:46;4.20;;;3.80;;
16173;SDS011;14031;50.158;8.626;2023-11-21T01:40:14;3.73;;;3.53;;
16173;SDS011;14031;50.158;8.626;2023-11-21T01:42:41;5.23;;;3.97;;
16173;SDS011;14031;50.158;8.626;2023-11-21T01:45:09;8.27;;;3.90;;
16173;SDS011;14031;50.158;8.626;2023-11-21T01:47:39;4.00;;;3.70;;
16173;SDS011;14031;50.158;8.626;2023-11-21T01:50:08;4.70;;;4.10;;
16173;SDS011;14031;50.158;8.626;2023-11-21T01:52:37;4.30;;;4.00;;
16173;SDS011;14031;50.158;8.626;2023-11-21T01:55:05;4.07;;;3.87;;
16173;SDS011;14031;50.158;8.626;2023-11-21T01:57:34;4.33;;;3.90;;
16173;SDS011;14031;50.158;8.626;2023-11-21T02:00:03;3.43;;;3.23;;
16173;SDS011;14031;50.158;8.626;2023-11-21T02:02:41;3.97;;;3.67;;
16173;SDS011;14031;50.158;8.626;2023-11-21T02:05:08;3.33;;;3.13;;
16173;SDS011;14031;50.158;8.626;2023-11-21T02:07:37;3.23;;;2.93;;
16173;SDS011;14031;50.158;8.626;2023-11-21T02:10:05;3.70;;;3.40;;
16173;SDS011;14031;50.158;8.626;2023-11-21T02:12:32;3.17;;;2.97;;
16173;SDS011;14031;50.158;8.626;2023-11-21T02:15:00;3.50;;;3.20;;
16173;SDS011;14031;50.158;8.626;2023-11-21T02:17:27;4.27;;;3.33;;
16173;SDS011;14031;50.158;8.626;2023-11-21T02:19:55;3.83;;;3.53;;
16173;SDS011;14031;50.158;8.626;2023-11-21T02:22:21;3.40;;;3.20;;
16173;SDS011;14031;50.158;8.626;2023-11-21T02:24:52;3.47;;;3.27;;
16173;SDS011;14031;50.158;8.626;2023-11-21T02:27:19;6.47;;;3.40;;
16173;SDS011;14031;50.158;8.626;2023-11-21T02:29:48;3.40;;;3.07;;
16173;SDS011;14031;50.158;8.626;2023-11-21T02:32:15;4.13;;;3.77;;
16173;SDS011;14031;50.158;8.626;2023-11-21T02:34:44;3.80;;;3.43;;
16173;SDS011;14031;50.158;8.626;2023-11-21T02:37:11;3.60;;;3.30;;
16173;SDS011;14031;50.158;8.626;2023-11-21T02:39:38;3.63;;;3.40;;
16173;SDS011;14031;50.158;8.626;2023-11-21T02:42:06;4.00;;;3.70;;
16173;SDS011;14031;50.158;8.626;2023-11-21T02:44:33;3.50;;;3.30;;
16173;SDS011;14031;50.158;8.626;2023-11-21T02:47:00;3.07;;;2.87;;
16173;SDS011;14031;50.158;8.626;2023-11-21T02:49:27;3.90;;;3.60;;
16173;SDS011;14031;50.158;8.626;2023-11-21T02:51:54;3.53;;;3.23;;
16173;SDS011;14031;50.158;8.626;2023-11-21T02:54:21;3.70;;;3.50;;
16173;SDS011;14031;50.158;8.626;2023-11-21T02:56:48;3.47;;;3.27;;
16173;SDS011;14031;50.158;8.626;2023-11-21T02:59:17;3.80;;;3.50;;
16173;SDS011;14031;50.158;8.626;2023-11-21T03:01:44;4.03;;;3.73;;
16173;SDS011;14031;50.158;8.626;2023-11-21T03:04:11;4.80;;;3.53;;
16173;SDS011;14031;50.158;8.626;2023-11-21T03:06:43;4.03;;;3.73;;
16173;SDS011;14031;50.158;8.626;2023-11-21T03:09:10;4.40;;;4.10;;
16173;SDS011;14031;50.158;8.626;2023-11-21T03:11:38;5.97;;;4.97;;
16173;SDS011;14031;50.158;8.626;2023-11-21T03:14:04;4.90;;;4.60;;
16173;SDS011;14031;50.158;8.626;2023-11-21T03:16:33;5.77;;;5.27;;
16173;SDS011;14031;50.158;8.626;2023-11-21T03:18:59;6.70;;;6.10;;
16173;SDS011;14031;50.158;8.626;2023-11-21T03:21:26;7.20;;;6.10;;
16173;SDS011;14031;50.158;8.626;2023-11-21T03:23:54;11.63;;;6.70;;
16173;SDS011;14031;50.158;8.626;2023-11-21T03:26:21;7.13;;;6.43;;
16173;SDS011;14031;50.158;8.626;2023-11-21T03:28:48;7.30;;;6.57;;
16173;SDS011;14031;50.158;8.626;2023-11-21T03:31:15;9.80;;;6.80;;
16173;SDS011;14031;50.158;8.626;2023-11-21T03:33:44;6.87;;;6.20;;
16173;SDS011;14031;50.158;8.626;2023-11-21T03:36:12;8.30;;;6.43;;
16173;SDS011;14031;50.158;8.626;2023-11-21T03:38:39;6.80;;;6.17;;
16173;SDS011;14031;50.158;8.626;2023-11-21T03:41:06;8.53;;;6.50;;
16173;SDS011;14031;50.158;8.626;2023-11-21T03:43:35;5.93;;;5.50;;
16173;SDS011;14031;50.158;8.626;2023-11-21T03:46:01;6.53;;;5.80;;
16173;SDS011;14031;50.158;8.626;2023-11-21T03:48:28;8.70;;;5.73;;
16173;SDS011;14031;50.158;8.626;2023-11-21T03:50:56;5.80;;;5.23;;
16173;SDS011;14031;50.158;8.626;2023-11-21T03:53:23;6.17;;;5.50;;
16173;SDS011;14031;50.158;8.626;2023-11-21T03:55:50;7.03;;;6.33;;
16173;SDS011;14031;50.158;8.626;2023-11-21T03:58:17;6.43;;;5.43;;
16173;SDS011;14031;50.158;8.626;2023-11-21T04:00:43;5.73;;;5.03;;
16173;SDS011;14031;50.158;8.626;2023-11-21T04:03:10;5.80;;;4.60;;
16173;SDS011;14031;50.158;8.626;2023-11-21T04:05:38;6.77;;;4.80;;
16173;SDS011;14031;50.158;8.626;2023-11-21T04:08:07;5.17;;;4.43;;
16173;SDS011;14031;50.158;8.626;2023-11-21T04:10:34;5.63;;;5.07;;
16173;SDS011;14031;50.158;8.626;2023-11-21T04:13:00;5.47;;;4.53;;
16173;SDS011;14031;50.158;8.626;2023-11-21T04:15:27;5.23;;;4.87;;
16173;SDS011;14031;50.158;8.626;2023-11-21T04:17:54;5.60;;;4.23;;
16173;SDS011;14031;50.158;8.626;2023-11-21T04:20:21;6.80;;;4.53;;
16173;SDS011;14031;50.158;8.626;2023-11-21T04:22:48;5.63;;;4.93;;
16173;SDS011;14031;50.158;8.626;2023-11-21T04:25:16;5.20;;;4.70;;
16173;SDS011;14031;50.158;8.626;2023-11-21T04:27:44;5.27;;;4.87;;
16173;SDS011;14031;50.158;8.626;2023-11-21T04:30:12;5.23;;;4.73;;
16173;SDS011;14031;50.158;8.626;2023-11-21T04:32:39;4.90;;;4.37;;
16173;SDS011;14031;50.158;8.626;2023-11-21T04:35:07;5.27;;;4.87;;
16173;SDS011;14031;50.158;8.626;2023-11-21T04:37:34;6.10;;;5.20;;
16173;SDS011;14031;50.158;8.626;2023-11-21T04:40:01;5.87;;;5.37;;
16173;SDS011;14031;50.158;8.626;2023-11-21T04:42:32;5.57;;;5.17;;
16173;SDS011;14031;50.158;8.626;2023-11-21T04:45:00;6.77;;;6.03;;
16173;SDS011;14031;50.158;8.626;2023-11-21T04:47:30;7.93;;;6.63;;
16173;SDS011;14031;50.158;8.626;2023-11-21T04:49:56;8.33;;;6.47;;
16173;SDS011;14031;50.158;8.626;2023-11-21T04:52:23;7.00;;;6.13;;
16173;SDS011;14031;50.158;8.626;2023-11-21T04:54:50;7.67;;;6.97;;
16173;SDS011;14031;50.158;8.626;2023-11-21T04:57:19;7.23;;;6.60;;
16173;SDS011;14031;50.158;8.626;2023-11-21T04:59:48;7.83;;;7.03;;
16173;SDS011;14031;50.158;8.626;2023-11-21T05:02:15;7.90;;;7.20;;
16173;SDS011;14031;50.158;8.626;2023-11-21T05:04:44;7.97;;;7.20;;
16173;SDS011;14031;50.158;8.626;2023-11-21T05:07:11;7.43;;;6.73;;
16173;SDS011;14031;50.158;8.626;2023-11-21T05:09:40;10.13;;;7.90;;
16173;SDS011;14031;50.158;8.626;2023-11-21T05:12:09;8.67;;;7.20;;
16173;SDS011;14031;50.158;8.626;2023-11-21T05:14:35;8.90;;;7.20;;
16173;SDS011;14031;50.158;8.626;2023-11-21T05:17:04;7.93;;;7.23;;
16173;SDS011;14031;50.158;8.626;2023-11-21T05:19:32;8.53;;;7.70;;
16173;SDS011;14031;50.158;8.626;2023-11-21T05:22:00;8.70;;;7.90;;
16173;SDS011;14031;50.158;8.626;2023-11-21T05:24:27;8.23;;;7.37;;
16173;SDS011;14031;50.158;8.626;2023-11-21T05:26:54;9.57;;;7.20;;
16173;SDS011;14031;50.158;8.626;2023-11-21T05:29:22;8.77;;;7.87;;
16173;SDS011;14031;50.158;8.626;2023-11-21T05:31:48;8.73;;;7.83;;
16173;SDS011;14031;50.158;8.626;2023-11-21T05:34:16;9.07;;;6.87;;
16173;SDS011;14031;50.158;8.626;2023-11-21T05:36:43;7.07;;;6.47;;
16173;SDS011;14031;50.158;8.626;2023-11-21T05:39:10;6.83;;;6.23;;
16173;SDS011;14031;50.158;8.626;2023-11-21T05:41:37;8.67;;;6.50;;
16173;SDS011;14031;50.158;8.626;2023-11-21T05:44:04;6.17;;;5.63;;
16173;SDS011;14031;50.158;8.626;2023-11-21T05:46:31;6.20;;;5.70;;
16173;SDS011;14031;50.158;8.626;2023-11-21T05:48:58;6.93;;;6.30;;
16173;SDS011;14031;50.158;8.626;2023-11-21T05:51:26;6.13;;;5.53;;
16173;SDS011;14031;50.158;8.626;2023-11-21T05:53:53;5.50;;;5.00;;
16173;SDS011;14031;50.158;8.626;2023-11-21T05:56:19;5.20;;;4.73;;
16173;SDS011;14031;50.158;8.626;2023-11-21T05:58:46;5.07;;;4.63;;
16173;SDS011;14031;50.158;8.626;2023-11-21T06:01:13;5.17;;;4.77;;
16173;SDS011;14031;50.158;8.626;2023-11-21T06:03:40;4.87;;;4.47;;
16173;SDS011;14031;50.158;8.626;2023-11-21T06:06:07;4.70;;;4.40;;
16173;SDS011;14031;50.158;8.626;2023-11-21T06:08:35;4.57;;;4.17;;
16173;SDS011;14031;50.158;8.626;2023-11-21T06:11:02;4.80;;;4.20;;
16173;SDS011;14031;50.158;8.626;2023-11-21T06:13:29;4.40;;;4.00;;
16173;SDS011;14031;50.158;8.626;2023-11-21T06:15:56;4.33;;;4.00;;
16173;SDS011;14031;50.158;8.626;2023-11-21T06:18:23;3.13;;;2.93;;
16173;SDS011;14031;50.158;8.626;2023-11-21T06:20:50;3.60;;;3.10;;
16173;SDS011;14031;50.158;8.626;2023-11-21T06:23:18;4.17;;;2.53;;
16173;SDS011;14031;50.158;8.626;2023-11-21T06:25:46;2.47;;;2.37;;
16173;SDS011;14031;50.158;8.626;2023-11-21T06:28:13;2.70;;;2.60;;
16173;SDS011;14031;50.158;8.626;2023-11-21T06:30:42;3.10;;;2.83;;
16173;SDS011;14031;50.158;8.626;2023-11-21T06:33:10;3.00;;;2.70;;
16173;SDS011;14031;50.158;8.626;2023-11-21T06:35:36;4.40;;;3.13;;
16173;SDS011;14031;50.158;8.626;2023-11-21T06:38:03;3.73;;;2.87;;
16173;SDS011;14031;50.158;8.626;2023-11-21T06:40:30;3.20;;;3.00;;
16173;SDS011;14031;50.158;8.626;2023-11-21T06:43:00;3.90;;;2.30;;
16173;SDS011;14031;50.158;8.626;2023-11-21T06:45:26;2.87;;;2.60;;
16173;SDS011;14031;50.158;8.626;2023-11-21T06:47:53;2.60;;;2.50;;
16173;SDS011;14031;50.158;8.626;2023-11-21T06:50:20;3.60;;;2.57;;
16173;SDS011;14031;50.158;8.626;2023-11-21T06:52:47;3.23;;;2.63;;
16173;SDS011;14031;50.158;8.626;2023-11-21T06:55:14;3.47;;;2.83;;
16173;SDS011;14031;50.158;8.626;2023-11-21T06:57:41;3.13;;;2.57;;
16173;SDS011;14031;50.158;8.626;2023-11-21T07:00:11;2.67;;;2.47;;
16173;SDS011;14031;50.158;8.626;2023-11-21T07:02:40;2.70;;;2.50;;
16173;SDS011;14031;50.158;8.626;2023-11-21T07:05:07;3.80;;;2.40;;
16173;SDS011;14031;50.158;8.626;2023-11-21T07:07:33;4.93;;;2.60;;
16173;SDS011;14031;50.158;8.626;2023-11-21T07:10:02;3.07;;;2.97;;
16173;SDS011;14031;50.158;8.626;2023-11-21T07:12:30;2.93;;;2.70;;
16173;SDS011;14031;50.158;8.626;2023-11-21T07:14:57;2.90;;;2.80;;
16173;SDS011;14031;50.158;8.626;2023-11-21T07:17:25;2.47;;;2.13;;
16173;SDS011;14031;50.158;8.626;2023-11-21T07:19:52;2.63;;;2.43;;
16173;SDS011;14031;50.158;8.626;2023-11-21T07:22:20;3.87;;;2.40;;
16173;SDS011;14031;50.158;8.626;2023-11-21T07:24:47;3.03;;;2.70;;
16173;SDS011;14031;50.158;8.626;2023-11-21T07:27:16;3.27;;;2.97;;
16173;SDS011;14031;50.158;8.626;2023-11-21T07:29:42;3.50;;;2.37;;
16173;SDS011;14031;50.158;8.626;2023-11-21T07:32:09;3.60;;;3.40;;
16173;SDS011;14031;50.158;8.626;2023-11-21T07:34:39;4.37;;;2.70;;
16173;SDS011;14031;50.158;8.626;2023-11-21T07:37:06;3.30;;;3.00;;
16173;SDS011;14031;50.158;8.626;2023-11-21T07:39:33;3.40;;;3.10;;
16173;SDS011;14031;50.158;8.626;2023-11-21T07:42:00;3.40;;;3.10;;
16173;SDS011;14031;50.158;8.626;2023-11-21T07:44:29;3.77;;;3.10;;
16173;SDS011;14031;50.158;8.626;2023-11-21T07:46:56;3.87;;;3.20;;
16173;SDS011;14031;50.158;8.626;2023-11-21T07:49:23;3.70;;;3.40;;
16173;SDS011;14031;50.158;8.626;2023-11-21T07:51:51;4.17;;;2.93;;
16173;SDS011;14031;50.158;8.626;2023-11-21T07:54:18;3.10;;;2.90;;
16173;SDS011;14031;50.158;8.626;2023-11-21T07:56:46;3.33;;;3.03;;
16173;SDS011;14031;50.158;8.626;2023-11-21T07:59:13;5.20;;;3.50;;
16173;SDS011;14031;50.158;8.626;2023-11-21T08:01:39;4.57;;;3.10;;
16173;SDS011;14031;50.158;8.626;2023-11-21T08:04:08;3.60;;;2.83;;
16173;SDS011;14031;50.158;8.626;2023-11-21T08:06:35;3.40;;;3.20;;
16173;SDS011;14031;50.158;8.626;2023-11-21T08:09:03;3.60;;;3.00;;
16173;SDS011;14031;50.158;8.626;2023-11-21T08:11:30;3.27;;;3.07;;
16173;SDS011;14031;50.158;8.626;2023-11-21T08:13:58;3.20;;;2.90;;
16173;SDS011;14031;50.158;8.626;2023-11-21T08:16:25;3.63;;;3.13;;
16173;SDS011;14031;50.158;8.626;2023-11-21T08:18:52;3.23;;;2.47;;
16173;SDS011;14031;50.158;8.626;2023-11-21T08:21:19;4.57;;;3.17;;
16173;SDS011;14031;50.158;8.626;2023-11-21T08:23:48;3.13;;;2.93;;
16173;SDS011;14031;50.158;8.626;2023-11-21T08:26:20;2.90;;;2.80;;
16173;SDS011;14031;50.158;8.626;2023-11-21T08:28:47;4.37;;;3.20;;
16173;SDS011;14031;50.158;8.626;2023-11-21T08:31:14;3.23;;;2.77;;
16173;SDS011;14031;50.158;8.626;2023-11-21T08:33:41;3.63;;;3.20;;
16173;SDS011;14031;50.158;8.626;2023-11-21T08:36:08;4.60;;;3.30;;
16173;SDS011;14031;50.158;8.626;2023-11-21T08:38:36;3.90;;;3.47;;
16173;SDS011;14031;50.158;8.626;2023-11-21T08:41:03;3.77;;;3.47;;
16173;SDS011;14031;50.158;8.626;2023-11-21T08:43:33;4.50;;;3.13;;
16173;SDS011;14031;50.158;8.626;2023-11-21T08:46:00;5.00;;;3.70;;
16173;SDS011;14031;50.158;8.626;2023-11-21T08:48:28;3.83;;;3.60;;
16173;SDS011;14031;50.158;8.626;2023-11-21T08:50:55;4.83;;;4.20;;
16173;SDS011;14031;50.158;8.626;2023-11-21T08:53:21;5.47;;;4.00;;
16173;SDS011;14031;50.158;8.626;2023-11-21T08:55:48;5.77;;;3.77;;
16173;SDS011;14031;50.158;8.626;2023-11-21T08:58:15;4.37;;;3.97;;
16173;SDS011;14031;50.158;8.626;2023-11-21T09:00:43;5.80;;;3.47;;
16173;SDS011;14031;50.158;8.626;2023-11-21T09:03:11;5.03;;;3.40;;
16173;SDS011;14031;50.158;8.626;2023-11-21T09:05:38;4.13;;;3.40;;
16173;SDS011;14031;50.158;8.626;2023-11-21T09:08:05;5.93;;;3.47;;
16173;SDS011;14031;50.158;8.626;2023-11-21T09:10:33;4.00;;;3.10;;
16173;SDS011;14031;50.158;8.626;2023-11-21T09:13:00;3.30;;;3.00;;
16173;SDS011;14031;50.158;8.626;2023-11-21T09:15:27;8.20;;;3.13;;
16173;SDS011;14031;50.158;8.626;2023-11-21T09:17:56;3.40;;;3.10;;
16173;SDS011;14031;50.158;8.626;2023-11-21T09:20:23;4.77;;;3.37;;
16173;SDS011;14031;50.158;8.626;2023-11-21T09:22:50;4.07;;;2.90;;
16173;SDS011;14031;50.158;8.626;2023-11-21T09:25:16;3.37;;;3.07;;
16173;SDS011;14031;50.158;8.626;2023-11-21T09:27:44;4.33;;;3.13;;
16173;SDS011;14031;50.158;8.626;2023-11-21T09:30:11;4.97;;;2.97;;
16173;SDS011;14031;50.158;8.626;2023-11-21T09:32:39;5.10;;;3.30;;
16173;SDS011;14031;50.158;8.626;2023-11-21T09:35:10;4.40;;;3.07;;
16173;SDS011;14031;50.158;8.626;2023-11-21T09:37:39;3.83;;;3.03;;
16173;SDS011;14031;50.158;8.626;2023-11-21T09:40:06;3.40;;;3.10;;
16173;SDS011;14031;50.158;8.626;2023-11-21T09:42:40;4.53;;;3.50;;
16173;SDS011;14031;50.158;8.626;2023-11-21T09:45:11;3.77;;;3.13;;
16173;SDS011;14031;50.158;8.626;2023-11-21T09:47:43;3.83;;;3.53;;
16173;SDS011;14031;50.158;8.626;2023-11-21T09:50:11;6.50;;;3.57;;
16173;SDS011;14031;50.158;8.626;2023-11-21T09:52:44;3.90;;;3.00;;
16173;SDS011;14031;50.158;8.626;2023-11-21T09:55:18;3.73;;;3.43;;
16173;SDS011;14031;50.158;8.626;2023-11-21T09:57:47;6.60;;;3.50;;
16173;SDS011;14031;50.158;8.626;2023-11-21T10:00:15;5.40;;;3.43;;
16173;SDS011;14031;50.158;8.626;2023-11-21T10:02:45;3.60;;;2.77;;
16173;SDS011;14031;50.158;8.626;2023-11-21T10:05:13;2.80;;;2.60;;
16173;SDS011;14031;50.158;8.626;2023-11-21T10:07:40;3.70;;;3.00;;
16173;SDS011;14031;50.158;8.626;2023-11-21T10:10:09;3.03;;;2.83;;
16173;SDS011;14031;50.158;8.626;2023-11-21T10:12:37;5.33;;;3.13;;
16173;SDS011;14031;50.158;8.626;2023-11-21T10:15:06;4.27;;;2.90;;
16173;SDS011;14031;50.158;8.626;2023-11-21T10:17:36;3.50;;;3.20;;
16173;SDS011;14031;50.158;8.626;2023-11-21T10:20:08;4.30;;;3.20;;
16173;SDS011;14031;50.158;8.626;2023-11-21T10:22:39;5.30;;;3.30;;
16173;SDS011;14031;50.158;8.626;2023-11-21T10:25:07;4.77;;;3.60;;
16173;SDS011;14031;50.158;8.626;2023-11-21T10:27:56;4.00;;;3.63;;
16173;SDS011;14031;50.158;8.626;2023-11-21T10:30:27;7.13;;;3.70;;
16173;SDS011;14031;50.158;8.626;2023-11-21T10:32:57;3.80;;;3.50;;
16173;SDS011;14031;50.158;8.626;2023-11-21T10:35:25;4.30;;;3.30;;
16173;SDS011;14031;50.158;8.626;2023-11-21T10:38:05;3.80;;;3.50;;
16173;SDS011;14031;50.158;8.626;2023-11-21T10:40:35;4.50;;;4.10;;
16173;SDS011;14031;50.158;8.626;2023-11-21T10:43:07;6.00;;;3.73;;
16173;SDS011;14031;50.158;8.626;2023-11-21T10:45:34;4.33;;;3.93;;
16173;SDS011;14031;50.158;8.626;2023-11-21T10:48:04;4.23;;;3.83;;
16173;SDS011;14031;50.158;8.626;2023-11-21T10:50:33;4.70;;;4.23;;
16173;SDS011;14031;50.158;8.626;2023-11-21T10:53:01;4.73;;;4.07;;
16173;SDS011;14031;50.158;8.626;2023-11-21T10:55:29;5.00;;;3.97;;
16173;SDS011;14031;50.158;8.626;2023-11-21T10:57:57;6.20;;;4.60;;
16173;SDS011;14031;50.158;8.626;2023-11-21T11:00:26;4.73;;;4.30;;
16173;SDS011;14031;50.158;8.626;2023-11-21T11:02:54;4.87;;;4.33;;
16173;SDS011;14031;50.158;8.626;2023-11-21T11:05:21;5.87;;;4.03;;
16173;SDS011;14031;50.158;8.626;2023-11-21T11:07:51;5.90;;;4.27;;
16173;SDS011;14031;50.158;8.626;2023-11-21T11:10:26;4.60;;;4.20;;
16173;SDS011;14031;50.158;8.626;2023-11-21T11:12:54;6.53;;;4.80;;
16173;SDS011;14031;50.158;8.626;2023-11-21T11:15:22;6.00;;;4.33;;
16173;SDS011;14031;50.158;8.626;2023-11-21T11:17:50;4.00;;;3.70;;
16173;SDS011;14031;50.158;8.626;2023-11-21T11:20:22;3.97;;;3.70;;
16173;SDS011;14031;50.158;8.626;2023-11-21T11:26:02;4.03;;;3.67;;
16173;SDS011;14031;50.158;8.626;2023-11-21T11:28:38;5.10;;;4.30;;
16173;SDS011;14031;50.158;8.626;2023-11-21T11:31:14;4.87;;;4.10;;
16173;SDS011;14031;50.158;8.626;2023-11-21T11:33:56;4.50;;;4.13;;
16173;SDS011;14031;50.158;8.626;2023-11-21T11:36:27;5.20;;;4.40;;
16173;SDS011;14031;50.158;8.626;2023-11-21T11:38:56;8.70;;;5.07;;
16173;SDS011;14031;50.158;8.626;2023-11-21T11:41:24;7.10;;;4.60;;
16173;SDS011;14031;50.158;8.626;2023-11-21T11:43:52;4.83;;;4.23;;
16173;SDS011;14031;50.158;8.626;2023-11-21T11:46:19;5.07;;;4.10;;
16173;SDS011;14031;50.158;8.626;2023-11-21T11:48:47;4.37;;;4.07;;
16173;SDS011;14031;50.158;8.626;2023-11-21T11:51:29;7.43;;;4.13;;
16173;SDS011;14031;50.158;8.626;2023-11-21T11:53:56;6.87;;;4.10;;
16173;SDS011;14031;50.158;8.626;2023-11-21T11:56:24;3.87;;;3.50;;
16173;SDS011;14031;50.158;8.626;2023-11-21T11:58:53;5.67;;;3.47;;
16173;SDS011;14031;50.158;8.626;2023-11-21T12:01:21;4.47;;;3.77;;
16173;SDS011;14031;50.158;8.626;2023-11-21T12:06:57;7.40;;;6.40;;
16173;SDS011;14031;50.158;8.626;2023-11-21T12:09:27;5.10;;;4.60;;
16173;SDS011;14031;50.158;8.626;2023-11-21T12:11:55;5.67;;;5.17;;
16173;SDS011;14031;50.158;8.626;2023-11-21T12:14:22;4.43;;;4.03;;
16173;SDS011;14031;50.158;8.626;2023-11-21T12:16:49;4.93;;;3.97;;
16173;SDS011;14031;50.158;8.626;2023-11-21T12:19:16;4.20;;;3.90;;
16173;SDS011;14031;50.158;8.626;2023-11-21T12:21:45;4.27;;;3.87;;
16173;SDS011;14031;50.158;8.626;2023-11-21T12:24:15;5.33;;;3.83;;
16173;SDS011;14031;50.158;8.626;2023-11-21T12:26:42;4.30;;;3.93;;
16173;SDS011;14031;50.158;8.626;2023-11-21T12:29:09;3.87;;;3.57;;
16173;SDS011;14031;50.158;8.626;2023-11-21T12:31:36;4.63;;;3.80;;
16173;SDS011;14031;50.158;8.626;2023-11-21T12:34:03;5.10;;;4.50;;
16173;SDS011;14031;50.158;8.626;2023-11-21T12:36:31;5.50;;;4.17;;
16173;SDS011;14031;50.158;8.626;2023-11-21T12:38:59;3.90;;;3.50;;
16173;SDS011;14031;50.158;8.626;2023-11-21T12:41:29;4.20;;;3.87;;
16173;SDS011;14031;50.158;8.626;2023-11-21T12:43:56;3.90;;;3.60;;
16173;SDS011;14031;50.158;8.626;2023-11-21T12:46:23;5.20;;;3.70;;
16173;SDS011;14031;50.158;8.626;2023-11-21T12:48:54;3.80;;;3.07;;
16173;SDS011;14031;50.158;8.626;2023-11-21T12:51:21;3.57;;;3.30;;
16173;SDS011;14031;50.158;8.626;2023-11-21T12:53:50;4.60;;;3.60;;
16173;SDS011;14031;50.158;8.626;2023-11-21T12:56:18;4.53;;;3.50;;
16173;SDS011;14031;50.158;8.626;2023-11-21T12:58:50;8.17;;;3.57;;
16173;SDS011;14031;50.158;8.626;2023-11-21T13:01:24;5.07;;;3.73;;
16173;SDS011;14031;50.158;8.626;2023-11-21T13:03:53;4.17;;;3.87;;
16173;SDS011;14031;50.158;8.626;2023-11-21T13:06:20;3.93;;;3.63;;
16173;SDS011;14031;50.158;8.626;2023-11-21T13:08:49;4.20;;;3.90;;
16173;SDS011;14031;50.158;8.626;2023-11-21T13:11:16;4.13;;;3.40;;
16173;SDS011;14031;50.158;8.626;2023-11-21T13:13:43;4.97;;;3.83;;
16173;SDS011;14031;50.158;8.626;2023-11-21T13:16:12;8.00;;;3.70;;
16173;SDS011;14031;50.158;8.626;2023-11-21T13:18:40;5.60;;;4.00;;
16173;SDS011;14031;50.158;8.626;2023-11-21T13:21:07;5.60;;;3.60;;
16173;SDS011;14031;50.158;8.626;2023-11-21T13:23:36;5.60;;;4.07;;
16173;SDS011;14031;50.158;8.626;2023-11-21T13:26:03;4.33;;;3.43;;
16173;SDS011;14031;50.158;8.626;2023-11-21T13:28:30;3.70;;;3.40;;
16173;SDS011;14031;50.158;8.626;2023-11-21T13:30:58;3.87;;;3.03;;
16173;SDS011;14031;50.158;8.626;2023-11-21T13:33:29;3.93;;;3.07;;
16173;SDS011;14031;50.158;8.626;2023-11-21T13:35:58;3.50;;;3.20;;
16173;SDS011;14031;50.158;8.626;2023-11-21T13:38:26;5.87;;;3.50;;
16173;SDS011;14031;50.158;8.626;2023-11-21T13:40:58;5.07;;;3.63;;
16173;SDS011;14031;50.158;8.626;2023-11-21T13:43:25;5.80;;;3.80;;
16173;SDS011;14031;50.158;8.626;2023-11-21T13:45:53;3.90;;;3.50;;
16173;SDS011;14031;50.158;8.626;2023-11-21T13:48:25;4.80;;;3.53;;
16173;SDS011;14031;50.158;8.626;2023-11-21T13:51:00;6.67;;;3.80;;
16173;SDS011;14031;50.158;8.626;2023-11-21T13:53:33;8.10;;;3.80;;
16173;SDS011;14031;50.158;8.626;2023-11-21T13:56:02;4.23;;;3.83;;
16173;SDS011;14031;50.158;8.626;2023-11-21T13:58:30;4.87;;;3.63;;
16173;SDS011;14031;50.158;8.626;2023-11-21T14:01:06;3.60;;;3.20;;
16173;SDS011;14031;50.158;8.626;2023-11-21T14:03:42;8.40;;;3.50;;
16173;SDS011;14031;50.158;8.626;2023-11-21T14:06:18;4.80;;;3.67;;
16173;SDS011;14031;50.158;8.626;2023-11-21T14:08:50;5.50;;;3.97;;
16173;SDS011;14031;50.158;8.626;2023-11-21T14:11:18;5.63;;;3.67;;
16173;SDS011;14031;50.158;8.626;2023-11-21T14:13:47;8.03;;;6.83;;
16173;SDS011;14031;50.158;8.626;2023-11-21T14:16:14;16.00;;;7.77;;
16173;SDS011;14031;50.158;8.626;2023-11-21T14:18:41;9.07;;;5.50;;
16173;SDS011;14031;50.158;8.626;2023-11-21T14:21:19;5.13;;;4.63;;
16173;SDS011;14031;50.158;8.626;2023-11-21T14:23:46;5.30;;;4.00;;
16173;SDS011;14031;50.158;8.626;2023-11-21T14:26:13;8.90;;;4.20;;
16173;SDS011;14031;50.158;8.626;2023-11-21T14:28:41;5.13;;;4.63;;
16173;SDS011;14031;50.158;8.626;2023-11-21T14:31:08;8.40;;;6.57;;
16173;SDS011;14031;50.158;8.626;2023-11-21T14:33:38;5.47;;;4.97;;
16173;SDS011;14031;50.158;8.626;2023-11-21T14:36:05;4.33;;;4.03;;
16173;SDS011;14031;50.158;8.626;2023-11-21T14:38:36;6.53;;;4.50;;
16173;SDS011;14031;50.158;8.626;2023-11-21T14:41:04;8.30;;;4.03;;
16173;SDS011;14031;50.158;8.626;2023-11-21T14:43:33;6.73;;;4.13;;
16173;SDS011;14031;50.158;8.626;2023-11-21T14:46:00;7.40;;;4.03;;
16173;SDS011;14031;50.158;8.626;2023-11-21T14:48:28;5.77;;;3.87;;
16173;SDS011;14031;50.158;8.626;2023-11-21T14:51:07;5.20;;;3.57;;
16173;SDS011;14031;50.158;8.626;2023-11-21T14:53:57;4.33;;;3.93;;
16173;SDS011;14031;50.158;8.626;2023-11-21T14:56:31;8.43;;;3.70;;
16173;SDS011;14031;50.158;8.626;2023-11-21T14:58:59;4.90;;;3.50;;
16173;SDS011;14031;50.158;8.626;2023-11-21T15:01:31;3.73;;;3.53;;